Camp Ernest, Kentucky
Current Conditions -  °F | °C
As of 6:52 PM on Saturday 25 Oct 2014 (Local Time) from KCVG Reporting Station
Few Clouds Few Clouds  
Wind Chill: 70°   Ceiling: Unl
Heat Index: 70°   Visibility: 10mi
Dew Point: 51°   Wind: 6mph
Humidity: 51%   Direction: 250°WSW
Pressure: 29.92"   Gusts: NA
Location:  39.0238°N, 84.7647°W
Report Text: KCVG 252252Z 25005KT 10SM FEW250 21/11 A2992 RMK AO2 SLP128 T02110106
Loading
Personal Weather Stations






























Interactive Weather Map
Tropical Storm Tracking
New forecast layout! Learn more

10-Day Weather Forecast

Advertisements
Track Severe Weather on mobile